Time;durP1;ratioP1;P1;durP2;ratioP2;P2;SDS_P1;SDS_P2;PMS_P1;PMS_P2;Temp;Humidity;BMP_temperature;BMP_pressure;BME280_temperature;BME280_humidity;BME280_pressure;Samples;Min_cycle;Max_cycle;Signal;HPM_P1;HPM_P2
2021/12/10 00:01:39;;;;;;;9.90;7.75;;;;;;;3.15;100.00;62318.19;5051521;28;20221;-79
2021/12/10 00:04:09;;;;;;;10.95;7.78;;;;;;;3.23;100.00;62328.94;5066111;28;20248;-80
2021/12/10 00:06:40;;;;;;;11.98;8.15;;;;;;;3.29;100.00;62338.16;5074505;28;20219;-80
2021/12/10 00:09:11;;;;;;;14.55;7.43;;;;;;;3.38;100.00;62347.38;5066868;28;20213;-79
2021/12/10 00:11:43;;;;;;;12.60;6.82;;;;;;;3.41;100.00;62349.97;5061294;28;20495;-79
2021/12/10 00:14:10;;;;;;;8.63;6.10;;;;;;;3.43;100.00;62349.50;5061949;28;20247;-80
2021/12/10 00:16:41;;;;;;;10.85;7.75;;;;;;;3.40;100.00;62349.44;5059249;28;20197;-81
2021/12/10 00:19:19;;;;;;;14.90;7.68;;;;;;;3.46;100.00;62353.09;5064622;28;20228;-80
2021/12/10 00:21:46;;;;;;;14.75;9.23;;;;;;;3.48;100.00;62352.13;5067977;28;20201;-80
2021/12/10 00:24:13;;;;;;;10.77;8.50;;;;;;;3.53;100.00;62359.78;5064196;28;20237;-81
2021/12/10 00:26:41;;;;;;;13.65;8.30;;;;;;;3.55;100.00;62361.84;5063248;28;20201;-80
2021/12/10 00:29:10;;;;;;;9.52;7.78;;;;;;;3.62;100.00;62369.03;5053401;28;20542;-78
2021/12/10 00:31:47;;;;;;;13.15;8.20;;;;;;;3.57;100.00;62366.41;5064632;28;20233;-79
2021/12/10 00:34:22;;;;;;;8.05;6.20;;;;;;;3.57;100.00;62363.38;5062515;28;20221;-79
2021/12/10 00:36:50;;;;;;;8.80;6.55;;;;;;;3.59;100.00;62365.44;5072513;28;20386;-78
2021/12/10 00:39:20;;;;;;;15.77;6.80;;;;;;;3.65;100.00;62369.59;5060226;28;20488;-79
2021/12/10 00:41:48;;;;;;;11.48;6.07;;;;;;;3.63;100.00;62369.53;5066093;28;20205;-78
2021/12/10 00:44:15;;;;;;;12.70;7.60;;;;;;;3.70;100.00;62374.22;5065273;28;20241;-79
2021/12/10 00:46:43;;;;;;;8.20;5.47;;;;;;;3.67;100.00;62374.19;5065570;28;20201;-79
2021/12/10 00:49:10;;;;;;;7.78;5.82;;;;;;;3.65;100.00;62374.13;5055016;28;20437;-78
2021/12/10 00:51:38;;;;;;;12.70;6.63;;;;;;;3.67;100.00;62376.19;5067637;28;20224;-79
2021/12/10 00:54:06;;;;;;;12.07;7.95;;;;;;;3.71;100.00;62380.31;5065506;28;20233;-80
2021/12/10 00:56:33;;;;;;;11.55;6.90;;;;;;;3.75;100.00;62381.88;5061157;28;20491;-77
2021/12/10 00:59:00;;;;;;;8.38;6.80;;;;;;;3.78;100.00;62384.97;5050978;28;20221;-78
2021/12/10 01:01:30;;;;;;;8.20;6.75;;;;;;;3.73;100.00;62382.84;5055171;28;20209;-79
2021/12/10 01:04:01;;;;;;;7.55;6.28;;;;;;;3.59;100.00;62365.94;5076378;28;20256;-77
2021/12/10 01:06:29;;;;;;;10.38;6.47;;;;;;;3.59;100.00;62365.94;5069130;28;20212;-79
2021/12/10 01:09:00;;;;;;;8.63;6.95;;;;;;;3.59;100.00;62362.94;5061524;28;20217;-78
2021/12/10 01:11:33;;;;;;;10.38;6.25;;;;;;;3.58;100.00;62367.44;5059691;28;20474;-78
2021/12/10 01:14:12;;;;;;;8.20;5.97;;;;;;;3.75;100.00;62379.88;5065693;28;20241;-78
2021/12/10 01:25:11;;;;;;;8.80;6.32;;;;;;;3.95;100.00;62402.97;5075923;28;20223;-79
2021/12/10 01:27:41;;;;;;;7.45;6.32;;;;;;;3.96;100.00;62404.00;5071058;28;20221;-80
2021/12/10 01:30:15;;;;;;;10.57;6.60;;;;;;;3.98;100.00;62403.53;5068945;28;20193;-80
2021/12/10 01:32:45;;;;;;;10.52;6.65;;;;;;;4.07;100.00;62412.78;5067327;28;20228;-80
2021/12/10 01:35:16;;;;;;;8.48;6.35;;;;;;;4.01;100.00;62404.09;5070265;28;20486;-80
2021/12/10 01:37:44;;;;;;;9.63;5.35;;;;;;;4.05;100.00;62412.75;5066398;28;20217;-81
2021/12/10 01:40:12;;;;;;;7.65;5.75;;;;;;;4.03;100.00;62411.22;5072222;28;20204;-80
2021/12/10 01:42:44;;;;;;;8.40;5.95;;;;;;;3.99;100.00;62407.09;5067976;28;20224;-80
2021/12/10 01:45:19;;;;;;;10.85;6.78;;;;;;;4.12;100.00;62420.47;5065945;28;20231;-80
2021/12/10 01:47:49;;;;;;;7.88;5.70;;;;;;;4.14;100.00;62416.97;5058169;28;20251;-79
2021/12/10 01:50:17;;;;;;;12.85;6.63;;;;;;;4.15;100.00;62420.50;5056945;28;20488;-80
2021/12/10 01:52:44;;;;;;;9.98;5.72;;;;;;;4.15;100.00;62423.56;5055629;28;20217;-79
2021/12/10 01:55:14;;;;;;;13.70;6.55;;;;;;;4.12;100.00;62419.94;5082099;28;20209;-78
2021/12/10 01:57:41;;;;;;;10.40;6.70;;;;;;;4.12;100.00;62415.44;5065873;28;20462;-78
2021/12/10 02:00:11;;;;;;;10.98;7.30;;;;;;;4.17;100.00;62420.56;5053941;28;20510;-79
2021/12/10 02:02:44;;;;;;;13.50;7.28;;;;;;;4.15;100.00;62420.50;5068487;28;20225;-79
2021/12/10 02:05:12;;;;;;;11.63;6.22;;;;;;;4.14;100.00;62422.50;5055593;28;20226;-79
2021/12/10 02:07:40;;;;;;;10.85;7.40;;;;;;;4.08;100.00;62415.81;5053876;28;20221;-79
2021/12/10 02:10:10;;;;;;;8.27;6.07;;;;;;;4.11;100.00;62416.38;5053460;28;20221;-78
2021/12/10 02:12:37;;;;;;;9.52;6.53;;;;;;;4.12;100.00;62422.47;5055688;28;20221;-79
2021/12/10 02:15:06;;;;;;;8.65;6.63;;;;;;;4.12;100.00;62415.44;5071531;28;20202;-80
2021/12/10 02:17:37;;;;;;;7.85;5.68;;;;;;;4.18;100.00;62421.06;5068295;28;20264;-79
2021/12/10 02:20:10;;;;;;;7.00;5.72;;;;;;;4.16;100.00;62424.56;5058895;28;20244;-78
2021/12/10 02:22:39;;;;;;;6.90;5.45;;;;;;;4.19;100.00;62429.66;5067566;28;20213;-82
2021/12/10 02:25:07;;;;;;;7.88;5.00;;;;;;;4.18;100.00;62431.66;5069258;28;20251;-80
2021/12/10 02:27:35;;;;;;;7.28;5.00;;;;;;;4.24;100.00;62429.78;5068512;28;20541;-79
2021/12/10 02:30:04;;;;;;;5.95;4.85;;;;;;;4.26;100.00;62432.34;5056330;28;20201;-80
2021/12/10 02:32:31;;;;;;;5.40;4.40;;;;;;;4.23;100.00;62431.25;5059955;28;20308;-79
2021/12/10 02:34:58;;;;;;;8.18;5.10;;;;;;;4.25;100.00;62433.84;5069713;28;20207;-79
2021/12/10 02:37:25;;;;;;;11.18;5.50;;;;;;;4.17;100.00;62423.09;5068655;28;20201;-79
2021/12/10 02:39:53;;;;;;;9.23;6.05;;;;;;;4.22;100.00;62430.75;5066918;28;20201;-78
2021/12/10 02:42:20;;;;;;;9.27;5.65;;;;;;;4.27;100.00;62435.38;5067379;28;20255;-80
2021/12/10 02:44:47;;;;;;;13.10;6.70;;;;;;;4.29;100.00;62437.97;5068661;28;21363;-79
2021/12/10 02:47:14;;;;;;;10.25;6.60;;;;;;;4.32;100.00;62438.53;5062138;28;20248;-78
2021/12/10 02:49:41;;;;;;;8.68;5.72;;;;;;;4.35;100.00;62446.13;5081774;28;20205;-78
2021/12/10 02:52:10;;;;;;;5.35;4.18;;;;;;;4.32;100.00;62443.03;5078939;28;20434;-78
2021/12/10 02:54:37;;;;;;;8.95;4.53;;;;;;;4.33;100.00;62439.53;5068658;28;20498;-79
2021/12/10 02:57:09;;;;;;;8.30;4.07;;;;;;;4.26;100.00;62432.34;5066116;28;20197;-79
2021/12/10 02:59:37;;;;;;;7.65;4.95;;;;;;;4.30;100.00;62441.50;5068757;28;20202;-79
2021/12/10 03:02:08;;;;;;;5.38;4.50;;;;;;;4.31;100.00;62440.03;5069142;28;20205;-76
2021/12/10 03:04:35;;;;;;;5.43;4.35;;;;;;;4.43;100.00;62449.84;5069015;28;20225;-79
2021/12/10 03:07:11;;;;;;;8.82;4.75;;;;;;;4.41;100.00;62447.25;5065275;28;20201;-78
2021/12/10 03:09:40;;;;;;;4.35;3.95;;;;;;;4.45;100.00;62451.38;5065618;28;20236;-79
2021/12/10 03:12:10;;;;;;;8.75;3.55;;;;;;;4.49;100.00;62456.00;5066859;28;20202;-78
2021/12/10 03:14:39;;;;;;;4.72;3.10;;;;;;;4.61;100.00;62467.84;5049615;28;20194;-79
2021/12/10 03:17:10;;;;;;;4.28;3.88;;;;;;;4.59;100.00;62468.81;5064539;28;20205;-77
2021/12/10 03:19:37;;;;;;;4.80;3.83;;;;;;;4.64;100.00;62473.97;5066504;28;20205;-78
2021/12/10 03:22:05;;;;;;;4.95;3.72;;;;;;;4.67;100.00;62476.56;5065594;28;20412;-78
2021/12/10 03:24:33;;;;;;;4.28;3.88;;;;;;;4.78;100.00;62487.34;5056018;28;20542;-78
2021/12/10 03:27:03;;;;;;;5.85;4.70;;;;;;;4.77;100.00;62486.31;5066076;28;20307;-78
2021/12/10 03:29:35;;;;;;;5.97;5.30;;;;;;;4.61;100.00;62465.31;5078134;28;20246;-77
2021/12/10 03:32:05;;;;;;;6.32;4.80;;;;;;;4.51;100.00;62465.13;5064115;28;20220;-77
2021/12/10 03:34:32;;;;;;;4.28;3.72;;;;;;;4.32;100.00;62448.59;5066831;28;20221;-77
2021/12/10 03:37:00;;;;;;;7.65;4.35;;;;;;;4.33;100.00;62444.59;5076191;28;20255;-77
2021/12/10 03:39:28;;;;;;;5.60;5.15;;;;;;;4.31;100.00;62440.03;5060948;28;20650;-77
2021/12/10 03:41:57;;;;;;;8.50;4.72;;;;;;;4.36;100.00;62442.13;5065481;28;20223;-78
2021/12/10 03:44:25;;;;;;;37.38;6.18;;;;;;;4.41;100.00;62447.78;5067605;28;20248;-77
2021/12/10 03:46:55;;;;;;;16.83;5.75;;;;;;;4.41;100.00;62450.31;5067572;28;20246;-78
2021/12/10 03:49:22;;;;;;;32.05;11.07;;;;;;;4.45;100.00;62453.91;5068142;28;20221;-78
2021/12/10 03:51:49;;;;;;;16.20;5.57;;;;;;;4.53;100.00;62465.19;5068848;28;20247;-78
2021/12/10 03:54:17;;;;;;;10.05;3.50;;;;;;;4.60;100.00;62469.88;5067631;28;20252;-79
2021/12/10 03:56:46;;;;;;;5.68;4.05;;;;;;;4.65;100.00;62474.50;5068466;28;20197;-78
2021/12/10 03:59:21;;;;;;;6.32;4.07;;;;;;;4.73;100.00;62480.19;5067117;28;20221;-79
2021/12/10 04:01:52;;;;;;;3.65;3.35;;;;;;;4.74;100.00;62481.22;5067471;28;20212;-79
2021/12/10 04:04:26;;;;;;;6.38;3.65;;;;;;;4.80;100.00;62484.38;5068331;28;20263;-79
2021/12/10 04:06:55;;;;;;;9.20;3.97;;;;;;;4.81;100.00;62487.91;5069191;28;20197;-79
2021/12/10 04:09:22;;;;;;;6.10;3.95;;;;;;;4.84;100.00;62494.03;5077046;28;20216;-79
2021/12/10 04:11:51;;;;;;;9.25;4.38;;;;;;;4.87;100.00;62499.16;5083472;28;20189;-79
2021/12/10 04:14:18;;;;;;;14.70;4.90;;;;;;;4.85;100.00;62495.06;5076926;28;20225;-79
2021/12/10 04:16:45;;;;;;;3.47;3.17;;;;;;;4.94;100.00;62504.34;5074188;28;20209;-79
2021/12/10 04:19:14;;;;;;;3.53;3.22;;;;;;;4.95;100.00;62505.38;5074699;28;20237;-79
2021/12/10 04:21:43;;;;;;;4.25;2.90;;;;;;;4.90;100.00;62499.72;5068102;28;20205;-79
2021/12/10 04:24:14;;;;;;;4.57;3.03;;;;;;;4.79;100.00;62486.38;5056519;28;20225;-79
2021/12/10 04:26:41;;;;;;;5.80;3.88;;;;;;;4.57;100.00;62468.78;5065075;28;20236;-78
2021/12/10 04:29:08;;;;;;;7.63;5.65;;;;;;;4.60;100.00;62472.38;5067550;28;20228;-79
2021/12/10 04:31:35;;;;;;;9.63;6.65;;;;;;;4.37;100.00;62448.69;5061762;28;20198;-78
2021/12/10 04:34:02;;;;;;;9.02;6.53;;;;;;;4.29;100.00;62434.91;5059940;28;20233;-78
2021/12/10 04:36:29;;;;;;;17.45;7.47;;;;;;;4.33;100.00;62439.03;5065544;28;20208;-79
2021/12/10 04:38:58;;;;;;;16.13;7.05;;;;;;;4.40;100.00;62449.25;5073161;28;20275;-79
2021/12/10 04:41:26;;;;;;;12.43;7.18;;;;;;;4.46;100.00;62452.41;5067983;28;20201;-79
2021/12/10 04:43:53;;;;;;;21.02;7.43;;;;;;;4.51;100.00;62465.13;5068866;28;20256;-79
2021/12/10 04:46:20;;;;;;;23.05;8.95;;;;;;;4.50;100.00;62457.03;5072088;28;20255;-80
2021/12/10 04:48:58;;;;;;;16.55;9.10;;;;;;;4.56;100.00;62465.22;5086284;28;20236;-79
2021/12/10 04:51:26;;;;;;;12.93;8.80;;;;;;;4.60;100.00;62464.81;5076697;28;20229;-79
2021/12/10 04:53:55;;;;;;;14.85;7.60;;;;;;;4.65;100.00;62472.50;5071029;28;20217;-79
2021/12/10 04:56:24;;;;;;;19.50;8.60;;;;;;;4.65;100.00;62471.97;5074546;28;20264;-80
2021/12/10 04:58:57;;;;;;;10.77;6.22;;;;;;;4.72;100.00;62482.22;5074639;28;20225;-80
2021/12/10 05:01:24;;;;;;;5.90;4.90;;;;;;;4.74;100.00;62486.78;5063990;28;20210;-79
2021/12/10 05:03:51;;;;;;;10.43;3.65;;;;;;;4.71;100.00;62478.66;5068776;28;20218;-79
2021/12/10 05:06:18;;;;;;;11.68;5.35;;;;;;;4.68;100.00;62477.56;5067277;28;20238;-79
2021/12/10 05:08:45;;;;;;;7.47;4.00;;;;;;;4.74;100.00;62483.75;5070474;28;20217;-78
2021/12/10 05:11:12;;;;;;;6.57;4.50;;;;;;;4.68;100.00;62475.03;5072581;28;20193;-79
2021/12/10 05:13:44;;;;;;;11.32;6.00;;;;;;;4.67;100.00;62481.59;5068740;28;20225;-80
2021/12/10 05:16:12;;;;;;;17.17;6.80;;;;;;;4.60;100.00;62471.88;5059927;28;20193;-80
2021/12/10 05:18:43;;;;;;;10.27;7.13;;;;;;;4.62;100.00;62471.41;5064894;28;20217;-80
2021/12/10 05:21:12;;;;;;;11.93;7.00;;;;;;;4.69;100.00;62481.13;5070824;28;20236;-81
2021/12/10 05:23:39;;;;;;;10.80;7.38;;;;;;;4.77;100.00;62483.78;5072166;28;20271;-80
2021/12/10 05:26:07;;;;;;;20.00;11.75;;;;;;;4.78;100.00;62485.34;5068538;28;20235;-79
2021/12/10 05:28:35;;;;;;;15.48;10.15;;;;;;;4.74;100.00;62483.75;5067795;28;20225;-79
2021/12/10 05:31:04;;;;;;;14.23;10.48;;;;;;;4.80;100.00;62489.91;5080933;28;20290;-79
2021/12/10 05:33:31;;;;;;;16.58;9.50;;;;;;;4.85;100.00;62494.56;5073208;28;20277;-78
2021/12/10 05:36:00;;;;;;;8.38;7.28;;;;;;;4.88;100.00;62497.66;5056490;28;20192;-79
2021/12/10 05:38:27;;;;;;;6.90;6.20;;;;;;;4.89;100.00;62496.66;5070676;28;20209;-79
2021/12/10 05:40:56;;;;;;;10.63;7.32;;;;;;;4.76;100.00;62482.78;5069419;28;20327;-79
2021/12/10 05:43:24;;;;;;;10.25;7.63;;;;;;;4.85;100.00;62499.63;5059572;28;20213;-79
2021/12/10 05:45:52;;;;;;;8.38;7.03;;;;;;;4.91;100.00;62500.72;5068526;28;20258;-79
2021/12/10 05:48:23;;;;;;;6.68;6.07;;;;;;;4.86;100.00;62495.59;5084809;28;20453;-78
2021/12/10 05:50:50;;;;;;;10.52;6.60;;;;;;;4.85;100.00;62492.03;5068742;28;20465;-79
2021/12/10 05:53:17;;;;;;;9.68;6.22;;;;;;;4.89;100.00;62499.19;5069961;28;20221;-80
2021/12/10 05:55:45;;;;;;;6.70;5.70;;;;;;;4.83;100.00;62495.03;5070630;28;20224;-80
2021/12/10 05:58:12;;;;;;;6.65;5.68;;;;;;;4.75;100.00;62479.72;5084818;28;20225;-79
2021/12/10 06:00:42;;;;;;;7.18;6.05;;;;;;;4.73;100.00;62483.22;5057842;28;20205;-79
2021/12/10 06:03:10;;;;;;;9.85;6.22;;;;;;;4.63;100.00;62472.44;5071017;28;20286;-80
2021/12/10 06:05:38;;;;;;;9.32;7.22;;;;;;;4.59;100.00;62470.84;5070698;28;20229;-79
2021/12/10 06:08:06;;;;;;;6.13;5.20;;;;;;;4.45;100.00;62456.94;5070437;28;20232;-79
2021/12/10 06:10:35;;;;;;;7.85;6.30;;;;;;;4.49;100.00;62458.00;5066526;28;20212;-79
2021/12/10 06:13:02;;;;;;;14.05;9.68;;;;;;;4.47;100.00;62461.00;5074436;28;20225;-78
2021/12/10 06:15:29;;;;;;;16.38;8.75;;;;;;;4.10;100.00;62417.88;5084331;28;20205;-79
2021/12/10 06:17:57;;;;;;;9.25;7.32;;;;;;;4.21;100.00;62427.19;5067344;28;20225;-79
2021/12/10 06:20:28;;;;;;;8.70;6.10;;;;;;;4.02;100.00;62409.66;5054944;28;20205;-80
2021/12/10 06:22:57;;;;;;;18.15;7.18;;;;;;;4.16;100.00;62416.50;5082377;28;20220;-79
2021/12/10 06:25:24;;;;;;;12.50;6.18;;;;;;;4.26;100.00;62434.34;5071293;28;20311;-79
2021/12/10 06:27:51;;;;;;;11.35;5.72;;;;;;;4.29;100.00;62437.44;5068320;28;20217;-78
2021/12/10 06:30:21;;;;;;;5.78;5.20;;;;;;;4.30;100.00;62438.47;5059863;28;20533;-79
2021/12/10 06:32:50;;;;;;;11.35;6.75;;;;;;;4.40;100.00;62448.75;5084796;28;20221;-79
2021/12/10 06:35:19;;;;;;;12.18;5.20;;;;;;;4.46;100.00;62460.50;5066750;28;20236;-79
2021/12/10 06:37:46;;;;;;;9.00;7.28;;;;;;;4.55;100.00;62459.16;5067958;28;20217;-79
2021/12/10 06:40:21;;;;;;;8.18;6.55;;;;;;;4.56;100.00;62465.22;5058006;28;20209;-79
2021/12/10 06:42:48;;;;;;;14.13;6.90;;;;;;;4.65;100.00;62469.97;5084423;28;20459;-78
2021/12/10 06:45:18;;;;;;;11.10;7.78;;;;;;;4.69;100.00;62476.09;5065224;28;20202;-78
2021/12/10 06:47:48;;;;;;;13.68;7.22;;;;;;;4.81;100.00;62490.44;5070532;28;20262;-79
2021/12/10 06:50:16;;;;;;;10.63;6.20;;;;;;;4.96;100.00;62508.91;5070594;28;20205;-80
2021/12/10 06:52:43;;;;;;;11.55;9.57;;;;;;;5.02;100.00;62507.03;5069373;28;20220;-79
2021/12/10 06:55:11;;;;;;;14.30;10.82;;;;;;;5.05;100.00;62515.69;5071924;28;20197;-79
2021/12/10 06:57:39;;;;;;;24.67;14.45;;;;;;;5.00;100.00;62513.06;5072786;28;20217;-79
2021/12/10 07:00:08;;;;;;;20.50;12.68;;;;;;;5.10;100.00;62520.31;5072461;28;20278;-79
2021/12/10 07:02:35;;;;;;;14.65;9.77;;;;;;;5.12;100.00;62524.88;5073522;28;20225;-79
2021/12/10 07:05:02;;;;;;;11.13;8.55;;;;;;;5.12;100.00;62522.38;5077819;28;20219;-79
2021/12/10 07:07:29;;;;;;;13.40;8.07;;;;;;;5.13;100.00;62523.38;5075827;28;20271;-80
2021/12/10 07:09:57;;;;;;;10.10;8.02;;;;;;;5.18;100.00;62529.06;5070653;28;20202;-79
2021/12/10 07:12:24;;;;;;;10.77;8.10;;;;;;;5.17;100.00;62525.50;5080451;28;20268;-78
2021/12/10 07:14:56;;;;;;;13.80;9.45;;;;;;;5.19;100.00;62535.13;5054139;28;20266;-80
2021/12/10 07:17:23;;;;;;;13.95;9.57;;;;;;;5.28;100.00;62538.84;5067613;28;20209;-80
2021/12/10 07:19:49;;;;;;;37.20;24.20;;;;;;;5.43;100.00;62554.28;5066396;28;20198;-82
2021/12/10 07:22:16;;;;;;;78.43;44.25;;;;;;;5.54;100.00;62565.63;5055662;28;20205;-80
2021/12/10 07:24:43;;;;;;;10.35;8.35;;;;;;;5.49;100.00;62557.94;5056591;28;20209;-80
2021/12/10 07:27:11;;;;;;;9.82;7.85;;;;;;;5.52;100.00;62564.06;5067923;28;20239;-81
2021/12/10 07:29:39;;;;;;;9.55;8.05;;;;;;;5.52;100.00;62563.56;5065812;28;20194;-78
2021/12/10 07:32:11;;;;;;;35.95;17.08;;;;;;;5.59;100.00;62573.31;5062645;28;20237;-80
2021/12/10 07:34:38;;;;;;;45.03;21.33;;;;;;;5.66;100.00;62575.97;5055957;28;20205;-80
2021/12/10 07:37:07;;;;;;;37.83;18.58;;;;;;;5.70;100.00;62582.09;5069868;28;20206;-80
2021/12/10 07:39:34;;;;;;;32.88;16.27;;;;;;;5.82;100.00;62597.53;5075850;28;20200;-80
2021/12/10 07:42:01;;;;;;;19.90;12.23;;;;;;;5.81;100.00;62593.44;5064994;28;20197;-79
2021/12/10 07:44:28;;;;;;;19.92;12.23;;;;;;;5.86;100.00;62598.63;5076049;28;20232;-81
2021/12/10 07:46:55;;;;;;;18.60;10.45;;;;;;;5.91;100.00;62603.25;5078173;28;20300;-80
2021/12/10 07:49:28;;;;;;;12.65;8.68;;;;;;;6.03;100.00;62616.13;5076020;28;20224;-80
2021/12/10 07:51:57;;;;;;;31.70;21.35;;;;;;;6.16;100.00;62629.03;5075622;28;20209;-78
2021/12/10 07:54:24;;;;;;;88.32;48.15;;;;;;;6.14;100.00;62626.97;5062960;28;20247;-80
2021/12/10 07:56:52;;;;;;;11.80;8.90;;;;;;;6.10;100.00;62625.88;5069139;28;20545;-80
2021/12/10 07:59:18;;;;;;;10.43;8.57;;;;;;;6.17;100.00;62630.03;5071061;28;20221;-80
2021/12/10 08:01:45;;;;;;;9.85;8.15;;;;;;;6.17;100.00;62632.56;5083846;28;20230;-80
2021/12/10 08:04:12;;;;;;;7.43;6.05;;;;;;;6.19;100.00;62635.16;5070180;28;20221;-80
2021/12/10 08:06:40;;;;;;;6.70;5.70;;;;;;;6.22;100.00;62638.25;5069856;28;20232;-80
2021/12/10 08:09:09;;;;;;;6.07;5.47;;;;;;;6.25;100.00;62635.75;5063076;28;20233;-81
2021/12/10 08:11:38;;;;;;;6.85;5.28;;;;;;;6.36;100.00;62647.09;5056693;28;20198;-81
2021/12/10 08:14:05;;;;;;;5.55;5.15;;;;;;;6.30;100.00;62648.50;5051766;28;20225;-79
2021/12/10 08:16:32;;;;;;;7.82;5.25;;;;;;;6.40;100.00;62654.25;5061771;28;20213;-80
2021/12/10 08:18:59;;;;;;;6.15;4.80;;;;;;;6.55;100.00;62667.22;5071220;28;20225;-80
2021/12/10 08:21:25;;;;;;;5.82;4.30;;;;;;;6.68;100.00;62683.13;5061628;28;20213;-81
2021/12/10 08:23:55;;;;;;;3.90;3.60;;;;;;;6.78;100.00;62695.97;5064179;28;20225;-80
2021/12/10 08:26:23;;;;;;;8.10;6.32;;;;;;;6.86;100.00;62703.72;5057745;28;20230;-80
2021/12/10 08:28:50;;;;;;;43.90;25.27;;;;;;;6.82;100.00;62697.06;5067735;28;20233;-80
2021/12/10 08:31:17;;;;;;;6.05;5.45;;;;;;;6.95;100.00;62713.50;5063426;28;20205;-80
2021/12/10 08:33:47;;;;;;;12.25;8.48;;;;;;;7.11;100.00;62729.00;5075144;28;20284;-81
2021/12/10 08:36:16;;;;;;;9.27;6.72;;;;;;;7.16;100.00;62731.63;5070549;28;20247;-80
2021/12/10 08:38:43;;;;;;;6.95;6.05;;;;;;;7.15;100.00;62735.66;5084661;28;20229;-79
2021/12/10 08:41:13;;;;;;;8.20;6.20;;;;;;;6.97;100.00;62712.53;5070330;28;20377;-79
2021/12/10 08:43:41;;;;;;;7.05;6.00;;;;;;;6.98;100.00;62714.09;5067693;28;20263;-79
2021/12/10 08:46:10;;;;;;;11.95;6.32;;;;;;;7.08;100.00;62726.41;5069217;28;20226;-79
2021/12/10 08:48:41;;;;;;;3.55;3.28;;;;;;;7.04;100.00;62720.28;5073056;28;20229;-80
2021/12/10 08:51:10;;;;;;;31.67;23.60;;;;;;;7.07;100.00;62719.81;5072120;28;20240;-79
2021/12/10 08:53:37;;;;;;;3.80;3.60;;;;;;;7.10;100.00;62727.97;5068297;28;20221;-79
2021/12/10 08:56:05;;;;;;;5.28;4.57;;;;;;;7.18;100.00;62734.19;5066229;28;20556;-79
2021/12/10 08:58:34;;;;;;;11.70;3.97;;;;;;;7.07;100.00;62725.91;5073805;28;20217;-79
2021/12/10 09:01:04;;;;;;;4.55;3.83;;;;;;;7.15;100.00;62735.66;5072128;28;20209;-79
2021/12/10 09:03:32;;;;;;;3.25;3.05;;;;;;;7.06;100.00;62719.28;5071039;28;20393;-79
2021/12/10 09:05:59;;;;;;;3.42;3.13;;;;;;;7.08;100.00;62723.88;5059054;28;20194;-78
2021/12/10 09:08:26;;;;;;;4.05;3.67;;;;;;;7.16;100.00;62732.16;5071482;28;20239;-79
2021/12/10 09:10:53;;;;;;;5.03;3.67;;;;;;;7.18;100.00;62736.72;5069901;28;20209;-80
2021/12/10 09:13:20;;;;;;;3.92;3.63;;;;;;;7.22;100.00;62740.88;5065632;28;20268;-79
2021/12/10 09:15:53;;;;;;;5.82;5.32;;;;;;;6.97;100.00;62710.03;5067791;28;20205;-80
2021/12/10 09:18:20;;;;;;;8.43;5.90;;;;;;;7.17;100.00;62735.72;5072010;28;20221;-80
2021/12/10 09:20:51;;;;;;;10.20;7.85;;;;;;;7.25;100.00;62741.41;5064284;28;20478;-79
2021/12/10 09:23:24;;;;;;;17.15;11.57;;;;;;;7.25;100.00;62740.91;5065248;28;20280;-79
2021/12/10 09:25:53;;;;;;;14.93;9.52;;;;;;;7.28;100.00;62744.53;5061296;28;20201;-79
2021/12/10 09:28:21;;;;;;;9.13;7.70;;;;;;;7.27;100.00;62745.50;5070045;28;20213;-78
2021/12/10 09:30:52;;;;;;;9.52;7.90;;;;;;;6.81;100.00;62698.56;5062533;28;20193;-79
2021/12/10 09:33:19;;;;;;;24.67;17.15;;;;;;;6.57;100.00;62674.34;5066516;28;20217;-80
2021/12/10 09:35:47;;;;;;;23.45;16.13;;;;;;;6.59;100.00;62678.91;5071407;28;20237;-79
2021/12/10 09:38:14;;;;;;;31.27;16.92;;;;;;;6.67;100.00;62684.13;5077566;28;20252;-80
2021/12/10 09:40:45;;;;;;;30.52;18.90;;;;;;;6.65;100.00;62679.53;5076540;28;20213;-81
2021/12/10 09:43:13;;;;;;;35.55;21.55;;;;;;;6.72;100.00;62687.28;5097538;28;20221;-80
2021/12/10 09:45:42;;;;;;;41.38;27.63;;;;;;;6.56;100.00;62673.28;5072824;28;20182;-79
2021/12/10 09:48:13;;;;;;;186.20;36.50;;;;;;;6.03;100.00;62615.59;5068861;28;20259;-80
2021/12/10 09:50:44;;;;;;;236.15;38.22;;;;;;;6.04;100.00;62619.19;5064758;28;20217;-80
2021/12/10 09:53:11;;;;;;;140.65;33.75;;;;;;;5.98;100.00;62610.97;5068025;28;20271;-81
2021/12/10 09:55:38;;;;;;;232.02;39.95;;;;;;;6.00;100.00;62615.06;5060982;28;20198;-79
2021/12/10 09:58:06;;;;;;;225.07;38.28;;;;;;;5.93;100.00;62605.81;5071933;28;20283;-80
2021/12/10 10:00:37;;;;;;;247.95;42.45;;;;;;;6.03;100.00;62615.59;5059426;28;20217;-80
2021/12/10 10:03:06;;;;;;;344.40;46.42;;;;;;;6.03;100.00;62618.13;5084657;28;20225;-80
2021/12/10 10:05:35;;;;;;;171.25;37.92;;;;;;;6.02;100.00;62617.13;5069048;28;20190;-80
2021/12/10 10:08:07;;;;;;;214.20;45.20;;;;;;;6.02;100.00;62614.59;5059092;28;20283;-80
2021/12/10 10:10:34;;;;;;;101.78;33.95;;;;;;;6.01;100.00;62619.13;5071972;28;20201;-80
2021/12/10 10:13:02;;;;;;;75.35;29.00;;;;;;;6.06;100.00;62621.75;5070911;28;20221;-79
2021/12/10 10:15:32;;;;;;;41.08;24.60;;;;;;;6.04;100.00;62617.16;5070528;28;20268;-80
2021/12/10 10:18:08;;;;;;;40.60;23.33;;;;;;;6.06;100.00;62621.75;5056346;28;20214;-80
2021/12/10 10:20:40;;;;;;;33.25;18.73;;;;;;;6.02;100.00;62612.06;5057442;28;20204;-80
2021/12/10 10:23:10;;;;;;;28.23;17.08;;;;;;;6.09;100.00;62619.28;5066934;28;20225;-80
2021/12/10 10:25:40;;;;;;;27.33;17.25;;;;;;;6.19;100.00;62630.09;5059504;28;20205;-79
2021/12/10 10:28:10;;;;;;;22.15;14.85;;;;;;;6.30;100.00;62643.47;5072166;28;20231;-79
2021/12/10 10:30:41;;;;;;;21.42;13.15;;;;;;;6.02;100.00;62615.09;5069862;28;20219;-80
2021/12/10 10:33:11;;;;;;;23.48;15.48;;;;;;;6.19;100.00;62632.09;5069471;28;20221;-80
2021/12/10 10:35:42;;;;;;;20.83;14.35;;;;;;;6.52;100.00;62669.16;5072560;28;20208;-80
2021/12/10 10:38:16;;;;;;;24.48;14.48;;;;;;;6.46;100.00;62663.00;5073032;28;20225;-80
2021/12/10 10:40:47;;;;;;;21.17;13.90;;;;;;;6.64;100.00;62683.56;5067346;28;20204;-79
2021/12/10 10:43:15;;;;;;;15.68;11.75;;;;;;;6.76;100.00;62693.41;5071804;28;20205;-79
2021/12/10 10:45:45;;;;;;;18.58;13.02;;;;;;;6.91;100.00;62711.94;5071423;28;20197;-79
2021/12/10 10:48:13;;;;;;;16.55;11.85;;;;;;;7.03;100.00;62718.72;5071347;28;20331;-79
2021/12/10 10:50:49;;;;;;;17.17;11.88;;;;;;;7.17;100.00;62730.13;5080772;28;20231;-80
2021/12/10 10:53:20;;;;;;;21.10;13.40;;;;;;;7.07;100.00;62722.88;5056943;28;20217;-80
2021/12/10 10:55:53;;;;;;;14.98;11.23;;;;;;;7.08;100.00;62728.94;5056109;28;20206;-80
2021/12/10 10:58:25;;;;;;;17.35;10.98;;;;;;;7.13;100.00;62734.09;5068108;28;20452;-79
2021/12/10 11:01:07;;;;;;;14.15;10.90;;;;;;;7.14;100.00;62732.09;5070919;28;20225;-79
2021/12/10 11:03:40;;;;;;;15.52;12.32;;;;;;;7.28;100.00;62744.53;5069915;28;20455;-79
2021/12/10 11:06:11;;;;;;;17.92;12.45;;;;;;;7.43;100.00;62762.03;5068673;28;20301;-80
2021/12/10 11:08:41;;;;;;;21.25;12.90;;;;;;;7.27;100.00;62748.56;5070759;28;20447;-79
2021/12/10 11:11:16;;;;;;;18.40;12.20;;;;;;;7.38;100.00;62756.84;5079661;28;20207;-79
2021/12/10 11:13:45;;;;;;;16.85;11.93;;;;;;;6.95;100.00;62715.53;5075973;28;20220;-79
2021/12/10 11:16:18;;;;;;;16.45;11.60;;;;;;;7.07;100.00;62725.38;5082943;28;20280;-81
2021/12/10 11:18:50;;;;;;;14.82;11.48;;;;;;;7.25;100.00;62743.94;5071825;28;20239;-78
2021/12/10 11:21:33;;;;;;;15.70;10.93;;;;;;;7.15;100.00;62738.69;5075059;28;20247;-80
2021/12/10 11:24:08;;;;;;;16.35;11.27;;;;;;;6.82;100.00;62697.06;5073287;28;20221;-79
2021/12/10 11:26:44;;;;;;;15.40;11.00;;;;;;;6.69;100.00;62686.72;5068059;28;20216;-80
2021/12/10 11:29:47;;;;;;;16.70;10.40;;;;;;;6.50;100.00;62664.06;5062125;28;20224;-80
2021/12/10 11:32:17;;;;;;;26.23;14.52;;;;;;;6.26;100.00;62639.31;5064243;28;20231;-79
2021/12/10 11:34:49;;;;;;;23.90;15.68;;;;;;;6.39;100.00;62655.25;5066930;28;20197;-78
2021/12/10 11:37:38;;;;;;;27.52;16.42;;;;;;;6.56;100.00;62672.78;5060011;28;20227;-79
2021/12/10 11:40:07;;;;;;;24.40;17.15;;;;;;;6.67;100.00;62682.13;5061423;28;20228;-79
2021/12/10 11:42:43;;;;;;;27.90;18.55;;;;;;;6.43;100.00;62654.31;5062766;28;20218;-79
2021/12/10 11:45:40;;;;;;;36.60;20.45;;;;;;;6.07;100.00;62620.25;5061586;28;20223;-78